sensor_id;sensor_type;location;lat;lon;timestamp;P1;durP1;ratioP1;P2;durP2;ratioP2
60211;SDS011;46079;48.686;15.598;2023-03-05T00:00:06;6.30;;;2.13;;
60211;SDS011;46079;48.686;15.598;2023-03-05T00:02:32;6.40;;;2.28;;
60211;SDS011;46079;48.686;15.598;2023-03-05T00:04:57;6.40;;;2.22;;
60211;SDS011;46079;48.686;15.598;2023-03-05T00:07:23;6.72;;;2.28;;
60211;SDS011;46079;48.686;15.598;2023-03-05T00:09:48;6.35;;;2.17;;
60211;SDS011;46079;48.686;15.598;2023-03-05T00:12:14;5.40;;;1.85;;
60211;SDS011;46079;48.686;15.598;2023-03-05T00:14:41;7.10;;;2.30;;
60211;SDS011;46079;48.686;15.598;2023-03-05T00:17:06;5.45;;;2.00;;
60211;SDS011;46079;48.686;15.598;2023-03-05T00:19:32;6.40;;;2.10;;
60211;SDS011;46079;48.686;15.598;2023-03-05T00:21:57;6.28;;;2.17;;
60211;SDS011;46079;48.686;15.598;2023-03-05T00:24:22;6.85;;;2.45;;
60211;SDS011;46079;48.686;15.598;2023-03-05T00:26:48;6.30;;;2.08;;
60211;SDS011;46079;48.686;15.598;2023-03-05T00:29:14;7.05;;;2.40;;
60211;SDS011;46079;48.686;15.598;2023-03-05T00:31:46;6.10;;;2.22;;
60211;SDS011;46079;48.686;15.598;2023-03-05T00:34:13;5.47;;;1.98;;
60211;SDS011;46079;48.686;15.598;2023-03-05T00:36:41;7.32;;;2.28;;
60211;SDS011;46079;48.686;15.598;2023-03-05T00:39:08;7.57;;;2.40;;
60211;SDS011;46079;48.686;15.598;2023-03-05T00:41:34;6.35;;;2.20;;
60211;SDS011;46079;48.686;15.598;2023-03-05T00:44:00;6.28;;;2.00;;
60211;SDS011;46079;48.686;15.598;2023-03-05T00:46:25;7.03;;;2.33;;
60211;SDS011;46079;48.686;15.598;2023-03-05T00:48:52;6.75;;;2.17;;
60211;SDS011;46079;48.686;15.598;2023-03-05T00:51:18;6.82;;;2.13;;
60211;SDS011;46079;48.686;15.598;2023-03-05T00:53:53;6.60;;;2.15;;
60211;SDS011;46079;48.686;15.598;2023-03-05T00:56:19;7.13;;;2.10;;
60211;SDS011;46079;48.686;15.598;2023-03-05T00:58:44;6.80;;;2.15;;
60211;SDS011;46079;48.686;15.598;2023-03-05T01:01:10;6.53;;;2.20;;
60211;SDS011;46079;48.686;15.598;2023-03-05T01:03:36;6.35;;;2.28;;
60211;SDS011;46079;48.686;15.598;2023-03-05T01:06:06;5.80;;;2.00;;
60211;SDS011;46079;48.686;15.598;2023-03-05T01:08:33;6.85;;;2.17;;
60211;SDS011;46079;48.686;15.598;2023-03-05T01:10:59;6.32;;;2.13;;
60211;SDS011;46079;48.686;15.598;2023-03-05T01:13:26;6.95;;;2.30;;
60211;SDS011;46079;48.686;15.598;2023-03-05T01:15:51;6.95;;;2.20;;
60211;SDS011;46079;48.686;15.598;2023-03-05T01:18:17;6.90;;;2.30;;
60211;SDS011;46079;48.686;15.598;2023-03-05T01:20:43;6.32;;;2.10;;
60211;SDS011;46079;48.686;15.598;2023-03-05T01:23:09;6.10;;;2.00;;
60211;SDS011;46079;48.686;15.598;2023-03-05T01:25:35;6.55;;;2.05;;
60211;SDS011;46079;48.686;15.598;2023-03-05T01:28:00;6.25;;;2.00;;
60211;SDS011;46079;48.686;15.598;2023-03-05T01:30:26;6.35;;;2.15;;
60211;SDS011;46079;48.686;15.598;2023-03-05T01:32:52;6.53;;;2.10;;
60211;SDS011;46079;48.686;15.598;2023-03-05T01:35:19;5.72;;;1.90;;
60211;SDS011;46079;48.686;15.598;2023-03-05T01:37:46;6.63;;;2.13;;
60211;SDS011;46079;48.686;15.598;2023-03-05T01:40:14;6.28;;;2.20;;
60211;SDS011;46079;48.686;15.598;2023-03-05T01:42:45;6.18;;;2.03;;
60211;SDS011;46079;48.686;15.598;2023-03-05T01:45:12;5.68;;;1.85;;
60211;SDS011;46079;48.686;15.598;2023-03-05T01:47:40;6.20;;;1.90;;
60211;SDS011;46079;48.686;15.598;2023-03-05T01:50:06;5.13;;;1.77;;
60211;SDS011;46079;48.686;15.598;2023-03-05T01:52:35;6.38;;;2.10;;
60211;SDS011;46079;48.686;15.598;2023-03-05T01:55:04;6.80;;;2.10;;
60211;SDS011;46079;48.686;15.598;2023-03-05T01:57:45;6.45;;;2.10;;
60211;SDS011;46079;48.686;15.598;2023-03-05T02:00:18;5.65;;;1.77;;
60211;SDS011;46079;48.686;15.598;2023-03-05T02:02:49;6.57;;;2.22;;
60211;SDS011;46079;48.686;15.598;2023-03-05T02:05:17;5.35;;;1.90;;
60211;SDS011;46079;48.686;15.598;2023-03-05T02:07:51;6.10;;;1.95;;
60211;SDS011;46079;48.686;15.598;2023-03-05T02:10:19;6.25;;;1.95;;
60211;SDS011;46079;48.686;15.598;2023-03-05T02:12:48;6.40;;;2.13;;
60211;SDS011;46079;48.686;15.598;2023-03-05T02:15:14;6.95;;;2.20;;
60211;SDS011;46079;48.686;15.598;2023-03-05T02:17:40;6.30;;;2.10;;
60211;SDS011;46079;48.686;15.598;2023-03-05T02:20:07;5.53;;;1.83;;
60211;SDS011;46079;48.686;15.598;2023-03-05T02:22:39;6.85;;;1.85;;
60211;SDS011;46079;48.686;15.598;2023-03-05T02:25:16;6.22;;;2.08;;
60211;SDS011;46079;48.686;15.598;2023-03-05T02:27:42;5.47;;;1.80;;
60211;SDS011;46079;48.686;15.598;2023-03-05T02:30:10;6.18;;;1.90;;
60211;SDS011;46079;48.686;15.598;2023-03-05T02:32:37;5.32;;;1.80;;
60211;SDS011;46079;48.686;15.598;2023-03-05T02:35:02;7.18;;;2.20;;
60211;SDS011;46079;48.686;15.598;2023-03-05T02:37:28;5.65;;;2.00;;
60211;SDS011;46079;48.686;15.598;2023-03-05T02:39:53;6.00;;;1.98;;
60211;SDS011;46079;48.686;15.598;2023-03-05T02:42:19;6.38;;;2.00;;
60211;SDS011;46079;48.686;15.598;2023-03-05T02:44:44;6.07;;;2.05;;
60211;SDS011;46079;48.686;15.598;2023-03-05T02:47:10;6.63;;;2.10;;
60211;SDS011;46079;48.686;15.598;2023-03-05T02:49:35;5.50;;;1.80;;
60211;SDS011;46079;48.686;15.598;2023-03-05T02:52:00;6.70;;;2.20;;
60211;SDS011;46079;48.686;15.598;2023-03-05T02:54:26;6.50;;;2.00;;
60211;SDS011;46079;48.686;15.598;2023-03-05T02:56:51;4.88;;;1.73;;
60211;SDS011;46079;48.686;15.598;2023-03-05T02:59:17;6.13;;;2.10;;
60211;SDS011;46079;48.686;15.598;2023-03-05T03:01:42;6.25;;;2.15;;
60211;SDS011;46079;48.686;15.598;2023-03-05T03:04:08;5.93;;;2.10;;
60211;SDS011;46079;48.686;15.598;2023-03-05T03:06:34;6.03;;;1.88;;
60211;SDS011;46079;48.686;15.598;2023-03-05T03:08:59;6.63;;;1.90;;
60211;SDS011;46079;48.686;15.598;2023-03-05T03:11:24;5.60;;;1.90;;
60211;SDS011;46079;48.686;15.598;2023-03-05T03:13:51;6.20;;;2.00;;
60211;SDS011;46079;48.686;15.598;2023-03-05T03:16:16;5.88;;;1.90;;
60211;SDS011;46079;48.686;15.598;2023-03-05T03:18:42;5.85;;;1.90;;
60211;SDS011;46079;48.686;15.598;2023-03-05T03:21:18;5.75;;;1.80;;
60211;SDS011;46079;48.686;15.598;2023-03-05T03:23:45;5.70;;;1.80;;
60211;SDS011;46079;48.686;15.598;2023-03-05T03:26:11;5.65;;;1.67;;
60211;SDS011;46079;48.686;15.598;2023-03-05T03:28:37;5.05;;;1.65;;
60211;SDS011;46079;48.686;15.598;2023-03-05T03:31:03;5.95;;;2.00;;
60211;SDS011;46079;48.686;15.598;2023-03-05T03:33:28;5.70;;;1.80;;
60211;SDS011;46079;48.686;15.598;2023-03-05T03:35:54;5.80;;;1.80;;
60211;SDS011;46079;48.686;15.598;2023-03-05T03:38:19;5.53;;;1.77;;
60211;SDS011;46079;48.686;15.598;2023-03-05T03:40:44;6.05;;;1.90;;
60211;SDS011;46079;48.686;15.598;2023-03-05T03:43:10;6.88;;;2.03;;
60211;SDS011;46079;48.686;15.598;2023-03-05T03:45:39;6.00;;;1.90;;
60211;SDS011;46079;48.686;15.598;2023-03-05T03:48:05;6.45;;;1.80;;
60211;SDS011;46079;48.686;15.598;2023-03-05T03:50:30;6.22;;;1.80;;
60211;SDS011;46079;48.686;15.598;2023-03-05T03:52:56;5.35;;;1.80;;
60211;SDS011;46079;48.686;15.598;2023-03-05T03:55:21;6.07;;;1.80;;
60211;SDS011;46079;48.686;15.598;2023-03-05T03:57:47;6.18;;;1.80;;
60211;SDS011;46079;48.686;15.598;2023-03-05T04:00:12;6.10;;;1.98;;
60211;SDS011;46079;48.686;15.598;2023-03-05T04:02:38;5.28;;;1.83;;
60211;SDS011;46079;48.686;15.598;2023-03-05T04:05:03;5.68;;;1.65;;
60211;SDS011;46079;48.686;15.598;2023-03-05T04:07:29;6.15;;;1.90;;
60211;SDS011;46079;48.686;15.598;2023-03-05T04:09:55;5.75;;;1.80;;
60211;SDS011;46079;48.686;15.598;2023-03-05T04:12:20;5.63;;;1.90;;
60211;SDS011;46079;48.686;15.598;2023-03-05T04:14:46;6.13;;;2.00;;
60211;SDS011;46079;48.686;15.598;2023-03-05T04:17:13;5.65;;;1.65;;
60211;SDS011;46079;48.686;15.598;2023-03-05T04:19:40;6.47;;;1.90;;
60211;SDS011;46079;48.686;15.598;2023-03-05T04:22:10;5.82;;;1.80;;
60211;SDS011;46079;48.686;15.598;2023-03-05T04:24:39;5.43;;;1.65;;
60211;SDS011;46079;48.686;15.598;2023-03-05T04:27:05;5.18;;;1.58;;
60211;SDS011;46079;48.686;15.598;2023-03-05T04:29:31;5.95;;;1.88;;
60211;SDS011;46079;48.686;15.598;2023-03-05T04:31:58;5.72;;;1.95;;
60211;SDS011;46079;48.686;15.598;2023-03-05T04:34:23;5.57;;;1.60;;
60211;SDS011;46079;48.686;15.598;2023-03-05T04:36:48;6.28;;;1.80;;
60211;SDS011;46079;48.686;15.598;2023-03-05T04:39:14;4.90;;;1.75;;
60211;SDS011;46079;48.686;15.598;2023-03-05T04:41:40;6.13;;;2.00;;
60211;SDS011;46079;48.686;15.598;2023-03-05T04:44:05;5.85;;;1.85;;
60211;SDS011;46079;48.686;15.598;2023-03-05T04:46:31;5.55;;;1.75;;
60211;SDS011;46079;48.686;15.598;2023-03-05T04:48:57;6.18;;;1.80;;
60211;SDS011;46079;48.686;15.598;2023-03-05T04:51:22;5.40;;;1.75;;
60211;SDS011;46079;48.686;15.598;2023-03-05T04:53:48;5.20;;;1.60;;
60211;SDS011;46079;48.686;15.598;2023-03-05T04:56:13;6.30;;;1.80;;
60211;SDS011;46079;48.686;15.598;2023-03-05T04:58:39;5.72;;;1.88;;
60211;SDS011;46079;48.686;15.598;2023-03-05T05:01:05;6.32;;;1.98;;
60211;SDS011;46079;48.686;15.598;2023-03-05T05:03:31;5.10;;;1.63;;
60211;SDS011;46079;48.686;15.598;2023-03-05T05:05:59;5.75;;;1.90;;
60211;SDS011;46079;48.686;15.598;2023-03-05T05:08:26;4.82;;;1.52;;
60211;SDS011;46079;48.686;15.598;2023-03-05T05:13:20;5.35;;;1.80;;
60211;SDS011;46079;48.686;15.598;2023-03-05T05:15:45;5.68;;;1.80;;
60211;SDS011;46079;48.686;15.598;2023-03-05T05:18:11;4.93;;;1.58;;
60211;SDS011;46079;48.686;15.598;2023-03-05T05:20:37;5.30;;;1.77;;
60211;SDS011;46079;48.686;15.598;2023-03-05T05:23:02;6.05;;;1.90;;
60211;SDS011;46079;48.686;15.598;2023-03-05T05:25:28;6.07;;;1.92;;
60211;SDS011;46079;48.686;15.598;2023-03-05T05:27:53;5.22;;;1.75;;
60211;SDS011;46079;48.686;15.598;2023-03-05T05:30:19;5.80;;;1.80;;
60211;SDS011;46079;48.686;15.598;2023-03-05T05:32:44;6.07;;;1.83;;
60211;SDS011;46079;48.686;15.598;2023-03-05T05:35:10;5.15;;;1.80;;
60211;SDS011;46079;48.686;15.598;2023-03-05T05:37:35;5.95;;;1.88;;
60211;SDS011;46079;48.686;15.598;2023-03-05T05:40:00;5.43;;;1.63;;
60211;SDS011;46079;48.686;15.598;2023-03-05T05:42:26;4.75;;;1.65;;
60211;SDS011;46079;48.686;15.598;2023-03-05T05:44:53;5.90;;;1.70;;
60211;SDS011;46079;48.686;15.598;2023-03-05T05:47:19;5.85;;;1.77;;
60211;SDS011;46079;48.686;15.598;2023-03-05T05:49:45;5.93;;;1.90;;
60211;SDS011;46079;48.686;15.598;2023-03-05T05:52:11;5.75;;;1.85;;
60211;SDS011;46079;48.686;15.598;2023-03-05T05:54:37;5.30;;;1.70;;
60211;SDS011;46079;48.686;15.598;2023-03-05T05:57:03;5.60;;;1.70;;
60211;SDS011;46079;48.686;15.598;2023-03-05T05:59:28;5.40;;;1.70;;
60211;SDS011;46079;48.686;15.598;2023-03-05T06:01:54;5.13;;;1.50;;
60211;SDS011;46079;48.686;15.598;2023-03-05T06:04:20;5.53;;;1.70;;
60211;SDS011;46079;48.686;15.598;2023-03-05T06:06:45;5.78;;;1.80;;
60211;SDS011;46079;48.686;15.598;2023-03-05T06:09:10;5.47;;;1.90;;
60211;SDS011;46079;48.686;15.598;2023-03-05T06:11:36;4.70;;;1.58;;
60211;SDS011;46079;48.686;15.598;2023-03-05T06:14:02;5.53;;;1.70;;
60211;SDS011;46079;48.686;15.598;2023-03-05T06:16:28;4.60;;;1.58;;
60211;SDS011;46079;48.686;15.598;2023-03-05T06:18:54;5.45;;;1.77;;
60211;SDS011;46079;48.686;15.598;2023-03-05T06:21:20;6.10;;;1.90;;
60211;SDS011;46079;48.686;15.598;2023-03-05T06:23:46;5.05;;;1.70;;
60211;SDS011;46079;48.686;15.598;2023-03-05T06:26:14;4.35;;;1.63;;
60211;SDS011;46079;48.686;15.598;2023-03-05T06:28:41;4.13;;;1.50;;
60211;SDS011;46079;48.686;15.598;2023-03-05T06:33:38;5.05;;;1.60;;
60211;SDS011;46079;48.686;15.598;2023-03-05T06:36:06;4.70;;;1.52;;
60211;SDS011;46079;48.686;15.598;2023-03-05T06:38:33;4.50;;;1.77;;
60211;SDS011;46079;48.686;15.598;2023-03-05T06:41:00;5.25;;;1.70;;
60211;SDS011;46079;48.686;15.598;2023-03-05T06:43:26;5.72;;;1.73;;
60211;SDS011;46079;48.686;15.598;2023-03-05T06:46:02;5.63;;;1.70;;
60211;SDS011;46079;48.686;15.598;2023-03-05T06:48:32;5.65;;;1.80;;
60211;SDS011;46079;48.686;15.598;2023-03-05T06:50:57;4.82;;;1.58;;
60211;SDS011;46079;48.686;15.598;2023-03-05T06:53:23;4.93;;;1.50;;
60211;SDS011;46079;48.686;15.598;2023-03-05T06:55:50;5.47;;;1.70;;
60211;SDS011;46079;48.686;15.598;2023-03-05T06:58:16;5.25;;;1.75;;
60211;SDS011;46079;48.686;15.598;2023-03-05T07:00:42;4.88;;;1.58;;
60211;SDS011;46079;48.686;15.598;2023-03-05T07:03:08;5.50;;;1.80;;
60211;SDS011;46079;48.686;15.598;2023-03-05T07:05:36;5.28;;;1.70;;
60211;SDS011;46079;48.686;15.598;2023-03-05T07:08:05;6.28;;;1.80;;
60211;SDS011;46079;48.686;15.598;2023-03-05T07:10:36;5.93;;;1.80;;
60211;SDS011;46079;48.686;15.598;2023-03-05T07:13:04;4.45;;;1.60;;
60211;SDS011;46079;48.686;15.598;2023-03-05T07:15:29;5.28;;;1.58;;
60211;SDS011;46079;48.686;15.598;2023-03-05T07:17:55;5.22;;;1.60;;
60211;SDS011;46079;48.686;15.598;2023-03-05T07:20:20;6.38;;;1.80;;
60211;SDS011;46079;48.686;15.598;2023-03-05T07:22:46;5.45;;;1.75;;
60211;SDS011;46079;48.686;15.598;2023-03-05T07:25:11;5.50;;;1.65;;
60211;SDS011;46079;48.686;15.598;2023-03-05T07:27:37;4.97;;;1.60;;
60211;SDS011;46079;48.686;15.598;2023-03-05T07:30:03;5.13;;;1.60;;
60211;SDS011;46079;48.686;15.598;2023-03-05T07:32:29;4.68;;;1.70;;
60211;SDS011;46079;48.686;15.598;2023-03-05T07:34:55;5.10;;;1.70;;
60211;SDS011;46079;48.686;15.598;2023-03-05T07:37:20;6.00;;;2.10;;
60211;SDS011;46079;48.686;15.598;2023-03-05T07:39:45;5.40;;;1.70;;
60211;SDS011;46079;48.686;15.598;2023-03-05T07:42:11;5.13;;;1.67;;
60211;SDS011;46079;48.686;15.598;2023-03-05T07:44:36;5.13;;;1.67;;
60211;SDS011;46079;48.686;15.598;2023-03-05T07:47:03;4.82;;;1.60;;
60211;SDS011;46079;48.686;15.598;2023-03-05T07:49:29;4.50;;;1.55;;
60211;SDS011;46079;48.686;15.598;2023-03-05T07:51:54;5.05;;;1.63;;
60211;SDS011;46079;48.686;15.598;2023-03-05T07:54:20;4.82;;;1.50;;
60211;SDS011;46079;48.686;15.598;2023-03-05T07:56:45;5.00;;;1.55;;
60211;SDS011;46079;48.686;15.598;2023-03-05T07:59:11;5.50;;;1.83;;
60211;SDS011;46079;48.686;15.598;2023-03-05T08:01:37;4.57;;;1.60;;
60211;SDS011;46079;48.686;15.598;2023-03-05T08:04:03;5.97;;;1.80;;
60211;SDS011;46079;48.686;15.598;2023-03-05T08:06:30;6.20;;;1.90;;
60211;SDS011;46079;48.686;15.598;2023-03-05T08:08:56;5.68;;;1.85;;
60211;SDS011;46079;48.686;15.598;2023-03-05T08:11:23;4.93;;;1.60;;
60211;SDS011;46079;48.686;15.598;2023-03-05T08:13:49;4.68;;;1.50;;
60211;SDS011;46079;48.686;15.598;2023-03-05T08:16:15;5.30;;;1.60;;
60211;SDS011;46079;48.686;15.598;2023-03-05T08:18:43;5.25;;;1.42;;
60211;SDS011;46079;48.686;15.598;2023-03-05T08:21:18;4.63;;;1.40;;
60211;SDS011;46079;48.686;15.598;2023-03-05T08:23:46;5.10;;;1.80;;
60211;SDS011;46079;48.686;15.598;2023-03-05T08:26:13;6.07;;;1.90;;
60211;SDS011;46079;48.686;15.598;2023-03-05T08:28:39;6.00;;;1.70;;
60211;SDS011;46079;48.686;15.598;2023-03-05T08:31:08;5.60;;;1.77;;
60211;SDS011;46079;48.686;15.598;2023-03-05T08:33:34;6.00;;;1.90;;
60211;SDS011;46079;48.686;15.598;2023-03-05T08:36:00;3.85;;;1.40;;
60211;SDS011;46079;48.686;15.598;2023-03-05T08:38:26;5.05;;;1.60;;
60211;SDS011;46079;48.686;15.598;2023-03-05T08:40:51;4.68;;;1.50;;
60211;SDS011;46079;48.686;15.598;2023-03-05T08:43:16;4.70;;;1.65;;
60211;SDS011;46079;48.686;15.598;2023-03-05T08:45:42;4.57;;;1.58;;
60211;SDS011;46079;48.686;15.598;2023-03-05T08:48:07;5.32;;;1.75;;
60211;SDS011;46079;48.686;15.598;2023-03-05T08:50:34;5.63;;;1.55;;
60211;SDS011;46079;48.686;15.598;2023-03-05T08:53:00;5.30;;;1.80;;
60211;SDS011;46079;48.686;15.598;2023-03-05T08:55:26;5.05;;;1.67;;
60211;SDS011;46079;48.686;15.598;2023-03-05T08:57:51;5.43;;;1.77;;
60211;SDS011;46079;48.686;15.598;2023-03-05T09:00:17;5.93;;;1.77;;
60211;SDS011;46079;48.686;15.598;2023-03-05T09:02:43;5.38;;;1.80;;
60211;SDS011;46079;48.686;15.598;2023-03-05T09:05:08;5.85;;;1.83;;
60211;SDS011;46079;48.686;15.598;2023-03-05T09:07:34;5.25;;;1.60;;
60211;SDS011;46079;48.686;15.598;2023-03-05T09:09:59;5.15;;;1.73;;
60211;SDS011;46079;48.686;15.598;2023-03-05T09:12:25;5.15;;;1.63;;
60211;SDS011;46079;48.686;15.598;2023-03-05T09:14:52;5.35;;;1.67;;
60211;SDS011;46079;48.686;15.598;2023-03-05T09:17:19;4.88;;;1.70;;
60211;SDS011;46079;48.686;15.598;2023-03-05T09:19:44;5.38;;;1.85;;
60211;SDS011;46079;48.686;15.598;2023-03-05T09:22:10;5.78;;;1.63;;
60211;SDS011;46079;48.686;15.598;2023-03-05T09:24:35;4.68;;;1.60;;
60211;SDS011;46079;48.686;15.598;2023-03-05T09:27:01;5.97;;;1.70;;
60211;SDS011;46079;48.686;15.598;2023-03-05T09:29:26;5.05;;;1.63;;
60211;SDS011;46079;48.686;15.598;2023-03-05T09:31:52;5.10;;;1.60;;
60211;SDS011;46079;48.686;15.598;2023-03-05T09:34:18;4.40;;;1.60;;
60211;SDS011;46079;48.686;15.598;2023-03-05T09:36:44;5.57;;;1.60;;
60211;SDS011;46079;48.686;15.598;2023-03-05T09:39:09;6.32;;;1.80;;
60211;SDS011;46079;48.686;15.598;2023-03-05T09:47:45;4.47;;;1.70;;
60211;SDS011;46079;48.686;15.598;2023-03-05T09:53:17;4.28;;;1.50;;
60211;SDS011;46079;48.686;15.598;2023-03-05T09:55:49;4.75;;;1.52;;
60211;SDS011;46079;48.686;15.598;2023-03-05T10:01:07;5.13;;;1.52;;
60211;SDS011;46079;48.686;15.598;2023-03-05T10:04:09;5.75;;;1.83;;
60211;SDS011;46079;48.686;15.598;2023-03-05T10:06:34;6.53;;;1.73;;
60211;SDS011;46079;48.686;15.598;2023-03-05T10:11:40;4.60;;;1.60;;
60211;SDS011;46079;48.686;15.598;2023-03-05T10:14:14;4.65;;;1.55;;
60211;SDS011;46079;48.686;15.598;2023-03-05T10:19:36;5.60;;;1.70;;
60211;SDS011;46079;48.686;15.598;2023-03-05T10:27:16;5.57;;;1.80;;
60211;SDS011;46079;48.686;15.598;2023-03-05T10:30:05;5.72;;;1.77;;
60211;SDS011;46079;48.686;15.598;2023-03-05T10:35:38;5.78;;;1.83;;
60211;SDS011;46079;48.686;15.598;2023-03-05T10:46:49;5.45;;;1.73;;
60211;SDS011;46079;48.686;15.598;2023-03-05T10:49:19;5.65;;;1.80;;
60211;SDS011;46079;48.686;15.598;2023-03-05T10:54:46;5.15;;;1.65;;
60211;SDS011;46079;48.686;15.598;2023-03-05T10:57:24;5.35;;;1.73;;
60211;SDS011;46079;48.686;15.598;2023-03-05T10:59:52;5.18;;;1.70;;
60211;SDS011;46079;48.686;15.598;2023-03-05T11:02:30;5.45;;;1.80;;
60211;SDS011;46079;48.686;15.598;2023-03-05T11:04:57;5.35;;;1.60;;
60211;SDS011;46079;48.686;15.598;2023-03-05T11:10:00;4.97;;;1.67;;
60211;SDS011;46079;48.686;15.598;2023-03-05T11:12:46;5.25;;;1.70;;
60211;SDS011;46079;48.686;15.598;2023-03-05T11:15:20;5.47;;;1.60;;
60211;SDS011;46079;48.686;15.598;2023-03-05T11:18:12;5.95;;;1.73;;
60211;SDS011;46079;48.686;15.598;2023-03-05T11:20:42;5.30;;;1.70;;
60211;SDS011;46079;48.686;15.598;2023-03-05T11:23:16;5.05;;;1.60;;
60211;SDS011;46079;48.686;15.598;2023-03-05T11:25:56;5.18;;;1.80;;
60211;SDS011;46079;48.686;15.598;2023-03-05T11:30:55;5.40;;;1.70;;
60211;SDS011;46079;48.686;15.598;2023-03-05T11:33:56;4.68;;;1.60;;
60211;SDS011;46079;48.686;15.598;2023-03-05T11:36:39;4.70;;;1.65;;
60211;SDS011;46079;48.686;15.598;2023-03-05T11:41:46;4.68;;;1.60;;
60211;SDS011;46079;48.686;15.598;2023-03-05T11:44:16;5.18;;;1.50;;
60211;SDS011;46079;48.686;15.598;2023-03-05T11:49:16;4.53;;;1.58;;
60211;SDS011;46079;48.686;15.598;2023-03-05T11:54:21;6.00;;;1.77;;
60211;SDS011;46079;48.686;15.598;2023-03-05T11:56:52;5.07;;;1.60;;
60211;SDS011;46079;48.686;15.598;2023-03-05T11:59:19;5.10;;;1.60;;
60211;SDS011;46079;48.686;15.598;2023-03-05T12:01:52;4.72;;;1.50;;
60211;SDS011;46079;48.686;15.598;2023-03-05T12:04:19;5.03;;;1.60;;
60211;SDS011;46079;48.686;15.598;2023-03-05T12:06:55;5.07;;;1.50;;
60211;SDS011;46079;48.686;15.598;2023-03-05T12:12:24;5.22;;;1.80;;
60211;SDS011;46079;48.686;15.598;2023-03-05T12:18:27;5.82;;;1.80;;
60211;SDS011;46079;48.686;15.598;2023-03-05T12:21:06;5.25;;;1.63;;
60211;SDS011;46079;48.686;15.598;2023-03-05T12:23:54;4.95;;;1.63;;
60211;SDS011;46079;48.686;15.598;2023-03-05T12:34:56;4.50;;;1.48;;
60211;SDS011;46079;48.686;15.598;2023-03-05T12:47:46;4.43;;;1.50;;
60211;SDS011;46079;48.686;15.598;2023-03-05T12:53:12;5.10;;;1.60;;
60211;SDS011;46079;48.686;15.598;2023-03-05T12:58:16;6.38;;;1.88;;
60211;SDS011;46079;48.686;15.598;2023-03-05T13:00:52;6.55;;;1.75;;
60211;SDS011;46079;48.686;15.598;2023-03-05T13:03:29;6.07;;;1.90;;
60211;SDS011;46079;48.686;15.598;2023-03-05T13:05:59;3.70;;;1.40;;
60211;SDS011;46079;48.686;15.598;2023-03-05T13:08:31;5.20;;;1.60;;
60211;SDS011;46079;48.686;15.598;2023-03-05T13:13:33;4.57;;;1.63;;
60211;SDS011;46079;48.686;15.598;2023-03-05T13:16:01;4.60;;;1.45;;
60211;SDS011;46079;48.686;15.598;2023-03-05T13:18:28;4.40;;;1.45;;
60211;SDS011;46079;48.686;15.598;2023-03-05T13:23:29;4.38;;;1.45;;
60211;SDS011;46079;48.686;15.598;2023-03-05T13:28:43;4.65;;;1.50;;
60211;SDS011;46079;48.686;15.598;2023-03-05T13:31:19;4.97;;;1.50;;
60211;SDS011;46079;48.686;15.598;2023-03-05T13:33:51;4.43;;;1.45;;
60211;SDS011;46079;48.686;15.598;2023-03-05T13:36:20;4.40;;;1.50;;
60211;SDS011;46079;48.686;15.598;2023-03-05T13:38:48;5.10;;;1.60;;
60211;SDS011;46079;48.686;15.598;2023-03-05T13:43:49;4.65;;;1.50;;
60211;SDS011;46079;48.686;15.598;2023-03-05T13:46:28;4.15;;;1.38;;
60211;SDS011;46079;48.686;15.598;2023-03-05T13:51:44;4.47;;;1.42;;
60211;SDS011;46079;48.686;15.598;2023-03-05T13:54:15;4.47;;;1.48;;
60211;SDS011;46079;48.686;15.598;2023-03-05T13:56:49;5.97;;;1.63;;
60211;SDS011;46079;48.686;15.598;2023-03-05T13:59:17;4.20;;;1.40;;
60211;SDS011;46079;48.686;15.598;2023-03-05T14:01:45;4.70;;;1.58;;
60211;SDS011;46079;48.686;15.598;2023-03-05T14:04:16;4.60;;;1.50;;
60211;SDS011;46079;48.686;15.598;2023-03-05T14:12:35;5.53;;;1.70;;
60211;SDS011;46079;48.686;15.598;2023-03-05T14:15:21;5.30;;;1.50;;
60211;SDS011;46079;48.686;15.598;2023-03-05T14:17:47;4.03;;;1.40;;
60211;SDS011;46079;48.686;15.598;2023-03-05T14:22:47;5.22;;;1.60;;
60211;SDS011;46079;48.686;15.598;2023-03-05T14:30:43;4.03;;;1.40;;
60211;SDS011;46079;48.686;15.598;2023-03-05T14:33:12;5.10;;;1.50;;
60211;SDS011;46079;48.686;15.598;2023-03-05T14:35:38;5.10;;;1.67;;
60211;SDS011;46079;48.686;15.598;2023-03-05T14:38:04;4.20;;;1.55;;
60211;SDS011;46079;48.686;15.598;2023-03-05T14:40:33;4.43;;;1.50;;
60211;SDS011;46079;48.686;15.598;2023-03-05T14:43:03;4.63;;;1.48;;
60211;SDS011;46079;48.686;15.598;2023-03-05T14:45:31;3.80;;;1.23;;
60211;SDS011;46079;48.686;15.598;2023-03-05T14:47:59;3.78;;;1.38;;
60211;SDS011;46079;48.686;15.598;2023-03-05T14:50:32;3.63;;;1.40;;
60211;SDS011;46079;48.686;15.598;2023-03-05T14:53:01;4.20;;;1.30;;
60211;SDS011;46079;48.686;15.598;2023-03-05T14:55:31;4.55;;;1.40;;
60211;SDS011;46079;48.686;15.598;2023-03-05T14:58:01;4.13;;;1.35;;
60211;SDS011;46079;48.686;15.598;2023-03-05T15:00:38;4.00;;;1.40;;
60211;SDS011;46079;48.686;15.598;2023-03-05T15:03:03;3.85;;;1.30;;
60211;SDS011;46079;48.686;15.598;2023-03-05T15:05:29;4.32;;;1.30;;
60211;SDS011;46079;48.686;15.598;2023-03-05T15:07:55;4.78;;;1.48;;
60211;SDS011;46079;48.686;15.598;2023-03-05T15:10:22;4.28;;;1.42;;
60211;SDS011;46079;48.686;15.598;2023-03-05T15:12:48;4.55;;;1.50;;
60211;SDS011;46079;48.686;15.598;2023-03-05T15:15:16;5.13;;;1.40;;
60211;SDS011;46079;48.686;15.598;2023-03-05T15:17:43;4.20;;;1.38;;
60211;SDS011;46079;48.686;15.598;2023-03-05T15:20:20;4.75;;;1.40;;
60211;SDS011;46079;48.686;15.598;2023-03-05T15:22:48;4.60;;;1.30;;
60211;SDS011;46079;48.686;15.598;2023-03-05T15:25:14;3.75;;;1.40;;
60211;SDS011;46079;48.686;15.598;2023-03-05T15:27:40;3.97;;;1.30;;
60211;SDS011;46079;48.686;15.598;2023-03-05T15:30:07;4.68;;;1.27;;
60211;SDS011;46079;48.686;15.598;2023-03-05T15:32:37;5.20;;;1.40;;
60211;SDS011;46079;48.686;15.598;2023-03-05T15:35:03;3.63;;;1.40;;
60211;SDS011;46079;48.686;15.598;2023-03-05T15:37:29;4.15;;;1.30;;
60211;SDS011;46079;48.686;15.598;2023-03-05T15:39:54;4.30;;;1.35;;
60211;SDS011;46079;48.686;15.598;2023-03-05T15:42:19;3.60;;;1.23;;
60211;SDS011;46079;48.686;15.598;2023-03-05T15:44:45;4.32;;;1.33;;
60211;SDS011;46079;48.686;15.598;2023-03-05T15:47:10;4.65;;;1.35;;
60211;SDS011;46079;48.686;15.598;2023-03-05T15:49:36;3.92;;;1.27;;
60211;SDS011;46079;48.686;15.598;2023-03-05T15:52:01;3.95;;;1.25;;
60211;SDS011;46079;48.686;15.598;2023-03-05T15:54:27;3.85;;;1.25;;
60211;SDS011;46079;48.686;15.598;2023-03-05T15:56:52;5.40;;;1.40;;
60211;SDS011;46079;48.686;15.598;2023-03-05T15:59:18;5.22;;;1.40;;
60211;SDS011;46079;48.686;15.598;2023-03-05T16:01:46;4.18;;;1.35;;
60211;SDS011;46079;48.686;15.598;2023-03-05T16:04:14;4.20;;;1.30;;
60211;SDS011;46079;48.686;15.598;2023-03-05T16:06:41;5.22;;;1.50;;
60211;SDS011;46079;48.686;15.598;2023-03-05T16:09:08;5.47;;;1.45;;
60211;SDS011;46079;48.686;15.598;2023-03-05T16:11:34;5.47;;;1.50;;
60211;SDS011;46079;48.686;15.598;2023-03-05T16:14:04;4.38;;;1.35;;
60211;SDS011;46079;48.686;15.598;2023-03-05T16:16:33;4.80;;;1.35;;
60211;SDS011;46079;48.686;15.598;2023-03-05T16:18:59;4.70;;;1.35;;
60211;SDS011;46079;48.686;15.598;2023-03-05T16:21:26;3.65;;;1.23;;
60211;SDS011;46079;48.686;15.598;2023-03-05T16:23:52;3.83;;;1.20;;
60211;SDS011;46079;48.686;15.598;2023-03-05T16:26:17;4.25;;;1.38;;
60211;SDS011;46079;48.686;15.598;2023-03-05T16:28:43;2.92;;;1.15;;